sensor_id;sensor_type;location;lat;lon;timestamp;temperature;humidity
43810;DHT22;29440;48.208;11.162;2023-02-22T00:00:20;3.90;99.90
43810;DHT22;29440;48.208;11.162;2023-02-22T00:03:05;4.00;99.90
43810;DHT22;29440;48.208;11.162;2023-02-22T00:05:32;3.90;99.90
43810;DHT22;29440;48.208;11.162;2023-02-22T00:07:58;3.90;99.90
43810;DHT22;29440;48.208;11.162;2023-02-22T00:10:25;3.90;99.90
43810;DHT22;29440;48.208;11.162;2023-02-22T00:12:53;3.90;99.90
43810;DHT22;29440;48.208;11.162;2023-02-22T00:15:22;3.90;99.90
43810;DHT22;29440;48.208;11.162;2023-02-22T00:17:48;3.80;99.90
43810;DHT22;29440;48.208;11.162;2023-02-22T00:20:15;3.80;99.90
43810;DHT22;29440;48.208;11.162;2023-02-22T00:22:45;3.80;99.90
43810;DHT22;29440;48.208;11.162;2023-02-22T00:25:12;3.70;99.90
43810;DHT22;29440;48.208;11.162;2023-02-22T00:27:38;3.60;99.90
43810;DHT22;29440;48.208;11.162;2023-02-22T00:30:05;3.60;99.90
43810;DHT22;29440;48.208;11.162;2023-02-22T00:32:31;3.60;99.90
43810;DHT22;29440;48.208;11.162;2023-02-22T00:34:57;3.60;99.90
43810;DHT22;29440;48.208;11.162;2023-02-22T00:37:23;3.60;99.90
43810;DHT22;29440;48.208;11.162;2023-02-22T00:39:49;3.60;99.90
43810;DHT22;29440;48.208;11.162;2023-02-22T00:42:16;3.70;99.90
43810;DHT22;29440;48.208;11.162;2023-02-22T00:44:42;3.60;99.90
43810;DHT22;29440;48.208;11.162;2023-02-22T00:47:09;3.60;99.90
43810;DHT22;29440;48.208;11.162;2023-02-22T00:49:35;3.50;99.90
43810;DHT22;29440;48.208;11.162;2023-02-22T00:52:01;3.50;99.90
43810;DHT22;29440;48.208;11.162;2023-02-22T00:54:26;3.50;99.90
43810;DHT22;29440;48.208;11.162;2023-02-22T00:56:52;3.50;99.90
43810;DHT22;29440;48.208;11.162;2023-02-22T00:59:18;3.50;99.90
43810;DHT22;29440;48.208;11.162;2023-02-22T01:01:43;3.50;99.90
43810;DHT22;29440;48.208;11.162;2023-02-22T01:04:09;3.50;99.90
43810;DHT22;29440;48.208;11.162;2023-02-22T01:06:35;3.60;99.90
43810;DHT22;29440;48.208;11.162;2023-02-22T01:09:01;3.50;99.90
43810;DHT22;29440;48.208;11.162;2023-02-22T01:11:27;3.50;99.90
43810;DHT22;29440;48.208;11.162;2023-02-22T01:13:53;3.40;99.90
43810;DHT22;29440;48.208;11.162;2023-02-22T01:16:20;3.40;99.90
43810;DHT22;29440;48.208;11.162;2023-02-22T01:18:46;3.40;99.90
43810;DHT22;29440;48.208;11.162;2023-02-22T01:21:11;3.40;99.90
43810;DHT22;29440;48.208;11.162;2023-02-22T01:23:37;3.40;99.90
43810;DHT22;29440;48.208;11.162;2023-02-22T01:26:03;3.30;99.90
43810;DHT22;29440;48.208;11.162;2023-02-22T01:28:31;3.30;99.90
43810;DHT22;29440;48.208;11.162;2023-02-22T01:30:56;3.30;99.90
43810;DHT22;29440;48.208;11.162;2023-02-22T01:33:22;3.30;99.90
43810;DHT22;29440;48.208;11.162;2023-02-22T01:35:48;3.30;99.90
43810;DHT22;29440;48.208;11.162;2023-02-22T01:38:15;3.30;99.90
43810;DHT22;29440;48.208;11.162;2023-02-22T01:40:47;3.30;99.90
43810;DHT22;29440;48.208;11.162;2023-02-22T01:43:26;3.20;99.90
43810;DHT22;29440;48.208;11.162;2023-02-22T01:53:37;3.00;99.90
43810;DHT22;29440;48.208;11.162;2023-02-22T01:56:05;2.90;99.90
43810;DHT22;29440;48.208;11.162;2023-02-22T01:58:32;2.80;99.90
43810;DHT22;29440;48.208;11.162;2023-02-22T02:00:59;2.80;99.90
43810;DHT22;29440;48.208;11.162;2023-02-22T02:03:32;2.70;99.90
43810;DHT22;29440;48.208;11.162;2023-02-22T02:06:02;2.70;99.90
43810;DHT22;29440;48.208;11.162;2023-02-22T02:11:24;2.70;99.90
43810;DHT22;29440;48.208;11.162;2023-02-22T02:13:55;2.70;99.90
43810;DHT22;29440;48.208;11.162;2023-02-22T02:16:24;2.80;99.90
43810;DHT22;29440;48.208;11.162;2023-02-22T02:18:51;2.70;99.90
43810;DHT22;29440;48.208;11.162;2023-02-22T02:21:41;2.70;99.90
43810;DHT22;29440;48.208;11.162;2023-02-22T02:30:19;2.70;99.90
43810;DHT22;29440;48.208;11.162;2023-02-22T02:33:09;2.60;99.90
43810;DHT22;29440;48.208;11.162;2023-02-22T02:38:23;2.60;99.90
43810;DHT22;29440;48.208;11.162;2023-02-22T02:41:08;2.60;99.90
43810;DHT22;29440;48.208;11.162;2023-02-22T02:43:57;2.60;99.90
43810;DHT22;29440;48.208;11.162;2023-02-22T02:47:18;2.60;99.90
43810;DHT22;29440;48.208;11.162;2023-02-22T02:49:30;2.60;99.90
43810;DHT22;29440;48.208;11.162;2023-02-22T02:51:59;2.50;99.90
43810;DHT22;29440;48.208;11.162;2023-02-22T02:54:27;2.60;99.90
43810;DHT22;29440;48.208;11.162;2023-02-22T02:56:55;2.60;99.90
43810;DHT22;29440;48.208;11.162;2023-02-22T03:02:06;2.60;99.90
43810;DHT22;29440;48.208;11.162;2023-02-22T03:10:56;2.40;99.90
43810;DHT22;29440;48.208;11.162;2023-02-22T03:16:44;2.40;99.90
43810;DHT22;29440;48.208;11.162;2023-02-22T03:22:11;2.40;99.90
43810;DHT22;29440;48.208;11.162;2023-02-22T03:27:27;2.40;99.90
43810;DHT22;29440;48.208;11.162;2023-02-22T03:29:57;2.40;99.90
43810;DHT22;29440;48.208;11.162;2023-02-22T03:32:29;2.40;99.90
43810;DHT22;29440;48.208;11.162;2023-02-22T03:35:09;2.50;99.90
43810;DHT22;29440;48.208;11.162;2023-02-22T03:37:40;2.50;99.90
43810;DHT22;29440;48.208;11.162;2023-02-22T03:40:11;2.50;99.90
43810;DHT22;29440;48.208;11.162;2023-02-22T03:42:41;2.50;99.90
43810;DHT22;29440;48.208;11.162;2023-02-22T03:45:09;2.40;99.90
43810;DHT22;29440;48.208;11.162;2023-02-22T03:47:39;2.40;99.90
43810;DHT22;29440;48.208;11.162;2023-02-22T03:50:13;2.40;99.90
43810;DHT22;29440;48.208;11.162;2023-02-22T03:52:40;2.40;99.90
43810;DHT22;29440;48.208;11.162;2023-02-22T03:55:08;2.40;99.90
43810;DHT22;29440;48.208;11.162;2023-02-22T03:57:38;2.30;99.90
43810;DHT22;29440;48.208;11.162;2023-02-22T04:00:10;2.20;99.90
43810;DHT22;29440;48.208;11.162;2023-02-22T04:02:36;2.20;99.90
43810;DHT22;29440;48.208;11.162;2023-02-22T04:05:02;2.20;99.90
43810;DHT22;29440;48.208;11.162;2023-02-22T04:07:27;2.20;99.90
43810;DHT22;29440;48.208;11.162;2023-02-22T04:09:53;2.10;99.90
43810;DHT22;29440;48.208;11.162;2023-02-22T04:12:18;2.10;99.90
43810;DHT22;29440;48.208;11.162;2023-02-22T04:14:44;2.00;99.90
43810;DHT22;29440;48.208;11.162;2023-02-22T04:17:10;2.00;99.90
43810;DHT22;29440;48.208;11.162;2023-02-22T04:19:35;2.00;99.90
43810;DHT22;29440;48.208;11.162;2023-02-22T04:22:01;2.00;99.90
43810;DHT22;29440;48.208;11.162;2023-02-22T04:24:27;1.90;99.90
43810;DHT22;29440;48.208;11.162;2023-02-22T04:26:52;1.80;99.90
43810;DHT22;29440;48.208;11.162;2023-02-22T04:29:19;1.80;99.90
43810;DHT22;29440;48.208;11.162;2023-02-22T04:31:45;1.70;99.90
43810;DHT22;29440;48.208;11.162;2023-02-22T04:34:10;1.70;99.90
43810;DHT22;29440;48.208;11.162;2023-02-22T04:36:36;1.70;99.90
43810;DHT22;29440;48.208;11.162;2023-02-22T04:39:03;1.70;99.90
43810;DHT22;29440;48.208;11.162;2023-02-22T04:41:30;1.70;99.90
43810;DHT22;29440;48.208;11.162;2023-02-22T04:43:56;1.70;99.90
43810;DHT22;29440;48.208;11.162;2023-02-22T04:46:21;1.70;99.90
43810;DHT22;29440;48.208;11.162;2023-02-22T04:48:47;1.70;99.90
43810;DHT22;29440;48.208;11.162;2023-02-22T04:51:14;1.90;99.90
43810;DHT22;29440;48.208;11.162;2023-02-22T04:53:40;1.80;99.90
43810;DHT22;29440;48.208;11.162;2023-02-22T04:56:06;1.90;99.90
43810;DHT22;29440;48.208;11.162;2023-02-22T04:58:32;1.90;99.90
43810;DHT22;29440;48.208;11.162;2023-02-22T05:00:58;1.90;99.90
43810;DHT22;29440;48.208;11.162;2023-02-22T05:03:24;1.90;99.90
43810;DHT22;29440;48.208;11.162;2023-02-22T05:05:51;1.90;99.90
43810;DHT22;29440;48.208;11.162;2023-02-22T05:08:17;1.90;99.90
43810;DHT22;29440;48.208;11.162;2023-02-22T05:10:44;1.90;99.90
43810;DHT22;29440;48.208;11.162;2023-02-22T05:13:09;1.90;99.90
43810;DHT22;29440;48.208;11.162;2023-02-22T05:15:35;2.00;99.90
43810;DHT22;29440;48.208;11.162;2023-02-22T05:18:01;2.00;99.90
43810;DHT22;29440;48.208;11.162;2023-02-22T05:20:33;1.90;99.90
43810;DHT22;29440;48.208;11.162;2023-02-22T05:23:02;2.00;99.90
43810;DHT22;29440;48.208;11.162;2023-02-22T05:25:28;1.90;99.90
43810;DHT22;29440;48.208;11.162;2023-02-22T05:27:56;2.00;99.90
43810;DHT22;29440;48.208;11.162;2023-02-22T05:30:26;2.00;99.90
43810;DHT22;29440;48.208;11.162;2023-02-22T05:32:53;2.00;99.90
43810;DHT22;29440;48.208;11.162;2023-02-22T05:35:20;2.00;99.90
43810;DHT22;29440;48.208;11.162;2023-02-22T05:37:46;2.10;99.90
43810;DHT22;29440;48.208;11.162;2023-02-22T05:40:13;1.90;99.90
43810;DHT22;29440;48.208;11.162;2023-02-22T05:42:40;1.90;99.90
43810;DHT22;29440;48.208;11.162;2023-02-22T05:45:06;1.90;99.90
43810;DHT22;29440;48.208;11.162;2023-02-22T05:47:32;1.90;99.90
43810;DHT22;29440;48.208;11.162;2023-02-22T05:49:57;1.90;99.90
43810;DHT22;29440;48.208;11.162;2023-02-22T05:52:23;1.90;99.90
43810;DHT22;29440;48.208;11.162;2023-02-22T05:54:49;1.80;99.90
43810;DHT22;29440;48.208;11.162;2023-02-22T05:57:15;1.90;99.90
43810;DHT22;29440;48.208;11.162;2023-02-22T05:59:41;1.90;99.90
43810;DHT22;29440;48.208;11.162;2023-02-22T06:02:07;1.90;99.90
43810;DHT22;29440;48.208;11.162;2023-02-22T06:04:34;1.80;99.90
43810;DHT22;29440;48.208;11.162;2023-02-22T06:07:00;1.90;99.90
43810;DHT22;29440;48.208;11.162;2023-02-22T06:09:25;1.90;99.90
43810;DHT22;29440;48.208;11.162;2023-02-22T06:11:51;1.90;99.90
43810;DHT22;29440;48.208;11.162;2023-02-22T06:14:16;1.80;99.90
43810;DHT22;29440;48.208;11.162;2023-02-22T06:16:42;1.90;99.90
43810;DHT22;29440;48.208;11.162;2023-02-22T06:19:08;1.90;99.90
43810;DHT22;29440;48.208;11.162;2023-02-22T06:21:34;1.90;99.90
43810;DHT22;29440;48.208;11.162;2023-02-22T06:24:01;1.90;99.90
43810;DHT22;29440;48.208;11.162;2023-02-22T06:26:28;1.90;99.90
43810;DHT22;29440;48.208;11.162;2023-02-22T06:28:54;1.90;99.90
43810;DHT22;29440;48.208;11.162;2023-02-22T06:31:19;1.90;99.90
43810;DHT22;29440;48.208;11.162;2023-02-22T06:33:45;2.00;99.90
43810;DHT22;29440;48.208;11.162;2023-02-22T06:36:10;1.90;99.90
43810;DHT22;29440;48.208;11.162;2023-02-22T06:38:36;1.90;99.90
43810;DHT22;29440;48.208;11.162;2023-02-22T06:41:01;2.00;99.90
43810;DHT22;29440;48.208;11.162;2023-02-22T06:43:27;2.10;99.90
43810;DHT22;29440;48.208;11.162;2023-02-22T06:45:53;2.20;99.90
43810;DHT22;29440;48.208;11.162;2023-02-22T06:48:19;2.20;99.90
43810;DHT22;29440;48.208;11.162;2023-02-22T06:50:44;2.30;99.90
43810;DHT22;29440;48.208;11.162;2023-02-22T06:53:10;2.30;99.90
43810;DHT22;29440;48.208;11.162;2023-02-22T06:55:36;2.50;99.90
43810;DHT22;29440;48.208;11.162;2023-02-22T06:58:03;2.70;99.90
43810;DHT22;29440;48.208;11.162;2023-02-22T07:00:30;3.10;99.90
43810;DHT22;29440;48.208;11.162;2023-02-22T07:02:57;3.40;99.90
43810;DHT22;29440;48.208;11.162;2023-02-22T07:05:24;3.80;99.90
43810;DHT22;29440;48.208;11.162;2023-02-22T07:07:52;4.00;99.90
43810;DHT22;29440;48.208;11.162;2023-02-22T07:10:24;4.40;99.90
43810;DHT22;29440;48.208;11.162;2023-02-22T07:12:50;4.70;99.90
43810;DHT22;29440;48.208;11.162;2023-02-22T07:15:17;5.10;99.90
43810;DHT22;29440;48.208;11.162;2023-02-22T07:17:43;5.50;99.90
43810;DHT22;29440;48.208;11.162;2023-02-22T07:20:09;6.00;99.90
43810;DHT22;29440;48.208;11.162;2023-02-22T07:22:37;6.50;99.90
43810;DHT22;29440;48.208;11.162;2023-02-22T07:25:06;7.20;99.90
43810;DHT22;29440;48.208;11.162;2023-02-22T07:27:35;7.80;99.90
43810;DHT22;29440;48.208;11.162;2023-02-22T07:30:02;8.70;99.90
43810;DHT22;29440;48.208;11.162;2023-02-22T07:32:27;9.30;99.90
43810;DHT22;29440;48.208;11.162;2023-02-22T07:34:53;9.90;99.90
43810;DHT22;29440;48.208;11.162;2023-02-22T07:37:18;10.30;99.90
43810;DHT22;29440;48.208;11.162;2023-02-22T07:39:45;10.70;99.90
43810;DHT22;29440;48.208;11.162;2023-02-22T07:42:11;11.00;99.90
43810;DHT22;29440;48.208;11.162;2023-02-22T07:44:37;11.40;99.90
43810;DHT22;29440;48.208;11.162;2023-02-22T07:47:03;11.80;99.90
43810;DHT22;29440;48.208;11.162;2023-02-22T07:49:29;12.20;99.90
43810;DHT22;29440;48.208;11.162;2023-02-22T07:51:54;12.70;99.90
43810;DHT22;29440;48.208;11.162;2023-02-22T07:54:20;13.20;99.90
43810;DHT22;29440;48.208;11.162;2023-02-22T07:56:46;13.70;99.90
43810;DHT22;29440;48.208;11.162;2023-02-22T07:59:13;14.20;99.90
43810;DHT22;29440;48.208;11.162;2023-02-22T08:01:39;14.50;99.90
43810;DHT22;29440;48.208;11.162;2023-02-22T08:04:04;14.80;99.90
43810;DHT22;29440;48.208;11.162;2023-02-22T08:06:30;15.10;98.30
43810;DHT22;29440;48.208;11.162;2023-02-22T08:08:56;15.20;98.70
43810;DHT22;29440;48.208;11.162;2023-02-22T08:11:23;15.50;97.80
43810;DHT22;29440;48.208;11.162;2023-02-22T08:13:49;15.90;97.10
43810;DHT22;29440;48.208;11.162;2023-02-22T08:16:15;16.20;96.00
43810;DHT22;29440;48.208;11.162;2023-02-22T08:18:40;16.40;95.00
43810;DHT22;29440;48.208;11.162;2023-02-22T08:21:06;16.60;93.70
43810;DHT22;29440;48.208;11.162;2023-02-22T08:23:32;17.10;94.10
43810;DHT22;29440;48.208;11.162;2023-02-22T08:26:07;17.30;93.30
43810;DHT22;29440;48.208;11.162;2023-02-22T08:28:33;17.40;92.00
43810;DHT22;29440;48.208;11.162;2023-02-22T08:30:59;17.40;91.60
43810;DHT22;29440;48.208;11.162;2023-02-22T08:33:24;17.60;92.10
43810;DHT22;29440;48.208;11.162;2023-02-22T08:35:50;17.80;91.50
43810;DHT22;29440;48.208;11.162;2023-02-22T08:38:27;17.70;91.20
43810;DHT22;29440;48.208;11.162;2023-02-22T08:40:53;17.80;91.20
43810;DHT22;29440;48.208;11.162;2023-02-22T08:43:20;18.10;90.90
43810;DHT22;29440;48.208;11.162;2023-02-22T08:45:47;18.30;90.20
43810;DHT22;29440;48.208;11.162;2023-02-22T08:48:14;18.60;88.70
43810;DHT22;29440;48.208;11.162;2023-02-22T08:50:40;18.60;88.10
43810;DHT22;29440;48.208;11.162;2023-02-22T08:53:08;18.60;87.90
43810;DHT22;29440;48.208;11.162;2023-02-22T08:55:36;18.60;87.10
43810;DHT22;29440;48.208;11.162;2023-02-22T08:58:04;18.80;86.90
43810;DHT22;29440;48.208;11.162;2023-02-22T09:00:33;18.90;86.30
43810;DHT22;29440;48.208;11.162;2023-02-22T09:03:00;18.90;84.60
43810;DHT22;29440;48.208;11.162;2023-02-22T09:05:26;18.80;84.80
43810;DHT22;29440;48.208;11.162;2023-02-22T09:07:51;19.00;84.90
43810;DHT22;29440;48.208;11.162;2023-02-22T09:10:20;19.00;83.60
43810;DHT22;29440;48.208;11.162;2023-02-22T09:12:51;19.00;80.30
43810;DHT22;29440;48.208;11.162;2023-02-22T09:15:20;19.20;82.10
43810;DHT22;29440;48.208;11.162;2023-02-22T09:17:45;19.20;80.50
43810;DHT22;29440;48.208;11.162;2023-02-22T09:20:12;19.20;79.50
43810;DHT22;29440;48.208;11.162;2023-02-22T09:22:38;19.10;79.70
43810;DHT22;29440;48.208;11.162;2023-02-22T09:25:05;18.90;78.60
43810;DHT22;29440;48.208;11.162;2023-02-22T09:27:31;18.70;78.60
43810;DHT22;29440;48.208;11.162;2023-02-22T09:29:56;18.50;79.70
43810;DHT22;29440;48.208;11.162;2023-02-22T09:32:23;18.40;80.80
43810;DHT22;29440;48.208;11.162;2023-02-22T09:34:52;18.10;80.20
43810;DHT22;29440;48.208;11.162;2023-02-22T09:37:19;17.80;79.70
43810;DHT22;29440;48.208;11.162;2023-02-22T09:39:44;17.50;82.40
43810;DHT22;29440;48.208;11.162;2023-02-22T09:42:23;17.30;84.50
43810;DHT22;29440;48.208;11.162;2023-02-22T09:45:02;17.10;86.90
43810;DHT22;29440;48.208;11.162;2023-02-22T09:47:42;16.70;84.80
43810;DHT22;29440;48.208;11.162;2023-02-22T09:50:14;16.60;86.40
43810;DHT22;29440;48.208;11.162;2023-02-22T09:55:39;16.40;85.20
43810;DHT22;29440;48.208;11.162;2023-02-22T09:58:18;16.20;86.50
43810;DHT22;29440;48.208;11.162;2023-02-22T10:00:47;15.90;86.20
43810;DHT22;29440;48.208;11.162;2023-02-22T10:03:29;15.80;87.30
43810;DHT22;29440;48.208;11.162;2023-02-22T10:06:12;15.60;84.60
43810;DHT22;29440;48.208;11.162;2023-02-22T10:08:39;15.30;84.80
43810;DHT22;29440;48.208;11.162;2023-02-22T10:16:45;15.50;85.70
43810;DHT22;29440;48.208;11.162;2023-02-22T10:27:21;15.80;84.00
43810;DHT22;29440;48.208;11.162;2023-02-22T10:29:58;15.80;82.00
43810;DHT22;29440;48.208;11.162;2023-02-22T10:32:30;15.90;82.40
43810;DHT22;29440;48.208;11.162;2023-02-22T10:34:57;15.90;82.40
43810;DHT22;29440;48.208;11.162;2023-02-22T10:37:28;15.90;83.30
43810;DHT22;29440;48.208;11.162;2023-02-22T10:39:59;15.90;83.10
43810;DHT22;29440;48.208;11.162;2023-02-22T10:42:29;15.80;85.70
43810;DHT22;29440;48.208;11.162;2023-02-22T10:44:55;15.70;84.00
43810;DHT22;29440;48.208;11.162;2023-02-22T10:47:21;15.70;85.20
43810;DHT22;29440;48.208;11.162;2023-02-22T10:49:52;15.70;83.90
43810;DHT22;29440;48.208;11.162;2023-02-22T10:52:25;15.70;86.40
43810;DHT22;29440;48.208;11.162;2023-02-22T10:54:54;15.70;82.90
43810;DHT22;29440;48.208;11.162;2023-02-22T10:57:25;15.80;86.00
43810;DHT22;29440;48.208;11.162;2023-02-22T10:59:51;15.90;83.80
43810;DHT22;29440;48.208;11.162;2023-02-22T11:02:28;15.90;84.80
43810;DHT22;29440;48.208;11.162;2023-02-22T11:04:57;16.00;84.00
43810;DHT22;29440;48.208;11.162;2023-02-22T11:07:34;16.00;84.50
43810;DHT22;29440;48.208;11.162;2023-02-22T11:10:06;15.80;83.50
43810;DHT22;29440;48.208;11.162;2023-02-22T11:12:38;15.80;83.30
43810;DHT22;29440;48.208;11.162;2023-02-22T11:17:50;15.70;82.40
43810;DHT22;29440;48.208;11.162;2023-02-22T11:20:20;15.80;82.20
43810;DHT22;29440;48.208;11.162;2023-02-22T11:22:52;15.70;80.50
43810;DHT22;29440;48.208;11.162;2023-02-22T11:25:21;15.60;79.10
43810;DHT22;29440;48.208;11.162;2023-02-22T11:27:49;15.60;79.00
43810;DHT22;29440;48.208;11.162;2023-02-22T11:30:20;15.50;79.50
43810;DHT22;29440;48.208;11.162;2023-02-22T11:33:05;15.40;78.00
43810;DHT22;29440;48.208;11.162;2023-02-22T11:35:52;15.30;78.80
43810;DHT22;29440;48.208;11.162;2023-02-22T11:38:26;15.40;78.30
43810;DHT22;29440;48.208;11.162;2023-02-22T11:43:43;15.40;79.20
43810;DHT22;29440;48.208;11.162;2023-02-22T11:46:21;15.40;77.60
43810;DHT22;29440;48.208;11.162;2023-02-22T11:49:01;15.50;78.40
43810;DHT22;29440;48.208;11.162;2023-02-22T11:51:55;15.50;76.30
43810;DHT22;29440;48.208;11.162;2023-02-22T12:00:18;15.70;79.00
43810;DHT22;29440;48.208;11.162;2023-02-22T12:05:49;15.70;79.20
43810;DHT22;29440;48.208;11.162;2023-02-22T12:08:57;15.70;79.70
43810;DHT22;29440;48.208;11.162;2023-02-22T12:11:48;15.70;80.60
43810;DHT22;29440;48.208;11.162;2023-02-22T12:17:21;15.70;83.90
43810;DHT22;29440;48.208;11.162;2023-02-22T12:19:56;15.80;84.30
43810;DHT22;29440;48.208;11.162;2023-02-22T12:27:31;15.90;84.30
43810;DHT22;29440;48.208;11.162;2023-02-22T12:32:50;16.00;83.40
43810;DHT22;29440;48.208;11.162;2023-02-22T12:35:23;16.10;82.70
43810;DHT22;29440;48.208;11.162;2023-02-22T12:43:21;16.10;80.10
43810;DHT22;29440;48.208;11.162;2023-02-22T12:57:26;16.50;80.80
43810;DHT22;29440;48.208;11.162;2023-02-22T12:59:59;16.40;80.20
43810;DHT22;29440;48.208;11.162;2023-02-22T13:02:34;16.30;78.90
43810;DHT22;29440;48.208;11.162;2023-02-22T13:05:01;16.10;79.00
43810;DHT22;29440;48.208;11.162;2023-02-22T13:13:05;16.10;82.20
43810;DHT22;29440;48.208;11.162;2023-02-22T13:26:27;16.60;84.30
43810;DHT22;29440;48.208;11.162;2023-02-22T13:54:39;16.50;82.60
43810;DHT22;29440;48.208;11.162;2023-02-22T13:57:22;16.40;81.30
43810;DHT22;29440;48.208;11.162;2023-02-22T14:03:04;16.30;85.00
43810;DHT22;29440;48.208;11.162;2023-02-22T14:08:06;16.30;81.90
43810;DHT22;29440;48.208;11.162;2023-02-22T14:13:11;16.20;83.60
43810;DHT22;29440;48.208;11.162;2023-02-22T14:18:45;16.20;82.80
43810;DHT22;29440;48.208;11.162;2023-02-22T14:21:16;16.10;84.60
43810;DHT22;29440;48.208;11.162;2023-02-22T14:23:49;16.10;87.00
43810;DHT22;29440;48.208;11.162;2023-02-22T14:26:28;16.10;86.30
43810;DHT22;29440;48.208;11.162;2023-02-22T14:37:24;16.10;86.30
43810;DHT22;29440;48.208;11.162;2023-02-22T14:39:57;16.10;85.90
43810;DHT22;29440;48.208;11.162;2023-02-22T14:42:28;16.00;86.10
43810;DHT22;29440;48.208;11.162;2023-02-22T14:47:52;15.90;87.00
43810;DHT22;29440;48.208;11.162;2023-02-22T14:58:14;16.00;89.30
43810;DHT22;29440;48.208;11.162;2023-02-22T15:00:45;16.00;87.10
43810;DHT22;29440;48.208;11.162;2023-02-22T15:03:33;16.00;87.30
43810;DHT22;29440;48.208;11.162;2023-02-22T15:06:16;16.00;88.90
43810;DHT22;29440;48.208;11.162;2023-02-22T15:08:43;16.00;87.80
43810;DHT22;29440;48.208;11.162;2023-02-22T15:11:27;16.00;88.20
43810;DHT22;29440;48.208;11.162;2023-02-22T15:13:56;15.90;89.40
43810;DHT22;29440;48.208;11.162;2023-02-22T15:16:25;15.90;90.00
43810;DHT22;29440;48.208;11.162;2023-02-22T15:18:58;15.90;90.40
43810;DHT22;29440;48.208;11.162;2023-02-22T15:21:26;15.80;90.10
43810;DHT22;29440;48.208;11.162;2023-02-22T15:23:58;15.80;90.70
43810;DHT22;29440;48.208;11.162;2023-02-22T15:26:26;15.80;90.70
43810;DHT22;29440;48.208;11.162;2023-02-22T15:28:57;15.70;91.20
43810;DHT22;29440;48.208;11.162;2023-02-22T15:31:34;15.70;91.50
43810;DHT22;29440;48.208;11.162;2023-02-22T15:34:31;15.70;91.30
43810;DHT22;29440;48.208;11.162;2023-02-22T15:37:18;15.60;91.30
43810;DHT22;29440;48.208;11.162;2023-02-22T15:39:46;15.60;91.70
43810;DHT22;29440;48.208;11.162;2023-02-22T15:42:14;15.50;91.00
43810;DHT22;29440;48.208;11.162;2023-02-22T15:44:49;15.50;91.60
43810;DHT22;29440;48.208;11.162;2023-02-22T15:47:21;15.50;91.60
43810;DHT22;29440;48.208;11.162;2023-02-22T15:50:17;15.30;92.00
43810;DHT22;29440;48.208;11.162;2023-02-22T15:55:33;15.20;91.70
43810;DHT22;29440;48.208;11.162;2023-02-22T15:58:11;15.20;91.50
43810;DHT22;29440;48.208;11.162;2023-02-22T16:00:40;15.10;92.00
43810;DHT22;29440;48.208;11.162;2023-02-22T16:03:19;15.00;92.20
43810;DHT22;29440;48.208;11.162;2023-02-22T16:05:54;14.90;92.20
43810;DHT22;29440;48.208;11.162;2023-02-22T16:08:32;14.90;92.40
43810;DHT22;29440;48.208;11.162;2023-02-22T16:11:06;14.80;92.60
43810;DHT22;29440;48.208;11.162;2023-02-22T16:13:38;14.70;92.50
43810;DHT22;29440;48.208;11.162;2023-02-22T16:16:28;14.60;92.70
43810;DHT22;29440;48.208;11.162;2023-02-22T16:19:31;14.50;92.70
43810;DHT22;29440;48.208;11.162;2023-02-22T16:22:00;14.30;93.50
43810;DHT22;29440;48.208;11.162;2023-02-22T16:24:29;14.10;94.00
43810;DHT22;29440;48.208;11.162;2023-02-22T16:29:43;13.90;94.40
43810;DHT22;29440;48.208;11.162;2023-02-22T16:32:09;13.80;94.50
43810;DHT22;29440;48.208;11.162;2023-02-22T16:34:36;13.80;94.60
43810;DHT22;29440;48.208;11.162;2023-02-22T16:37:01;13.70;94.70
43810;DHT22;29440;48.208;11.162;2023-02-22T16:39:31;13.70;94.80
43810;DHT22;29440;48.208;11.162;2023-02-22T16:42:01;13.60;94.80
43810;DHT22;29440;48.208;11.162;2023-02-22T16:44:27;13.50;94.90
43810;DHT22;29440;48.208;11.162;2023-02-22T16:46:55;13.50;95.00
43810;DHT22;29440;48.208;11.162;2023-02-22T16:49:24;13.40;95.10
43810;DHT22;29440;48.208;11.162;2023-02-22T16:54:23;13.30;95.40
43810;DHT22;29440;48.208;11.162;2023-02-22T16:56:51;13.20;95.40
43810;DHT22;29440;48.208;11.162;2023-02-22T16:59:17;13.10;95.60
43810;DHT22;29440;48.208;11.162;2023-02-22T17:01:43;13.00;95.60
43810;DHT22;29440;48.208;11.162;2023-02-22T17:04:20;13.10;95.70
43810;DHT22;29440;48.208;11.162;2023-02-22T17:06:46;12.90;96.10
43810;DHT22;29440;48.208;11.162;2023-02-22T17:09:13;12.80;95.90
43810;DHT22;29440;48.208;11.162;2023-02-22T17:11:40;12.70;96.10
43810;DHT22;29440;48.208;11.162;2023-02-22T17:14:06;12.70;96.70
43810;DHT22;29440;48.208;11.162;2023-02-22T17:16:32;12.60;96.70
43810;DHT22;29440;48.208;11.162;2023-02-22T17:18:58;12.50;96.90
43810;DHT22;29440;48.208;11.162;2023-02-22T17:21:23;12.40;97.10
43810;DHT22;29440;48.208;11.162;2023-02-22T17:23:49;12.30;97.10
43810;DHT22;29440;48.208;11.162;2023-02-22T17:26:16;12.20;97.70
43810;DHT22;29440;48.208;11.162;2023-02-22T17:28:42;12.10;97.40
43810;DHT22;29440;48.208;11.162;2023-02-22T17:31:28;12.10;97.40
43810;DHT22;29440;48.208;11.162;2023-02-22T17:33:58;11.90;97.50
43810;DHT22;29440;48.208;11.162;2023-02-22T17:36:27;11.80;97.50
43810;DHT22;29440;48.208;11.162;2023-02-22T17:38:52;11.90;97.50
43810;DHT22;29440;48.208;11.162;2023-02-22T17:41:18;11.70;97.50
43810;DHT22;29440;48.208;11.162;2023-02-22T17:43:43;11.60;97.50
43810;DHT22;29440;48.208;11.162;2023-02-22T17:46:09;11.50;97.50
43810;DHT22;29440;48.208;11.162;2023-02-22T17:48:34;11.40;98.40
43810;DHT22;29440;48.208;11.162;2023-02-22T17:51:09;11.30;99.90
43810;DHT22;29440;48.208;11.162;2023-02-22T17:53:35;11.10;99.90
43810;DHT22;29440;48.208;11.162;2023-02-22T17:56:09;10.90;99.90
43810;DHT22;29440;48.208;11.162;2023-02-22T17:58:36;10.70;99.90
43810;DHT22;29440;48.208;11.162;2023-02-22T18:01:03;10.70;99.90
43810;DHT22;29440;48.208;11.162;2023-02-22T18:03:29;10.70;99.90
43810;DHT22;29440;48.208;11.162;2023-02-22T18:05:59;10.60;99.90
43810;DHT22;29440;48.208;11.162;2023-02-22T18:08:27;10.70;99.90
43810;DHT22;29440;48.208;11.162;2023-02-22T18:10:54;10.50;99.90
43810;DHT22;29440;48.208;11.162;2023-02-22T18:13:24;10.50;99.90
43810;DHT22;29440;48.208;11.162;2023-02-22T18:15:51;10.40;99.90
43810;DHT22;29440;48.208;11.162;2023-02-22T18:18:17;10.30;99.90
43810;DHT22;29440;48.208;11.162;2023-02-22T18:20:44;10.20;99.90
43810;DHT22;29440;48.208;11.162;2023-02-22T18:23:15;10.20;99.90
43810;DHT22;29440;48.208;11.162;2023-02-22T18:25:46;10.10;99.90
43810;DHT22;29440;48.208;11.162;2023-02-22T18:28:13;10.00;99.90
43810;DHT22;29440;48.208;11.162;2023-02-22T18:30:39;9.80;99.90
43810;DHT22;29440;48.208;11.162;2023-02-22T18:33:05;9.80;99.90